Sheridan, WY (82801)

2:58 AM MST on January 17, 2017 (GMT -0700)
South Sheridan | | Change Station

Elev 3770 ft 44.79 °N, 106.95 °W | Updated 22 seconds ago

Clear
Clear
-0.9 °F
Feels Like -1 °F
N
0.0
Wind Variable Wind from South
Gusts 0.0 mph

Today
High -- | Low -- °F
--% Chance of Precip.
Yesterday
High -- | Low -- °F
Precip. -- in
Pressure 30.12 in
Visibility 10.0 miles
Clouds Clear
Windchill -1 °F
Dew Point -13 °F
Humidity 56%
Rainfall 0.00 in
Snow Depth Not available.
7:40 AM 4:56 PM
Waning Gibbous, 74% visible
METAR KSHR 170953Z AUTO 15004KT 10SM CLR M15/M18 A2994 RMK AO2 SLP197 T11501183
Pressure 30.12 in
Visibility 10.0 miles
Clouds Clear
Windchill -1 °F
Dew Point -13 °F
Humidity 56%
Rainfall 0.00 in
Snow Depth Not available.
7:40 AM 4:56 PM
Waning Gibbous, 74% visible
METAR KSHR 170953Z AUTO 15004KT 10SM CLR M15/M18 A2994 RMK AO2 SLP197 T11501183

Get Your Daily Forecast Email!

Thanks for signing up!

Be on the lookout for a verification email in your inbox.

You'll start receiving the daily forecast at 8 AM.

×

10-Day Weather Forecast

Almanac

Astronomy

Jan. 17, 2017 Rise Set
Actual Time
Civil Twilight
Nautical Twilight
Astronomical Twilight
Moon
Length of Visible Light
Length of Day
Tomorrow will be .
, % of the Moon is Illuminated

Today's Extremes

State Highs State Lows

Community

WunderPhotos

Upload Photos

1,962,540 photos uploaded!

WunderBlog® & News

Nearby

Air Quality

  Air Quality AQ Index Pollutant
Not available.

Snow Depth

Station Depth Elevation

Earthquake Activity

City Distance Mag. Time & Date
Minimum magnitude displayed is 2.5.

Coastal Water Temperatures

Place Temperature

Stations

Nearby Weather Stations

Station Location Temp. Windchill Dew Point Humidity Wind Precip. Elev Updated Type
                   

Watches & Warnings

There are currently no watches in effect.